Chautauqua County-Jamestown Airport Jamestown US
ICAO: KJHW
IATA: JHW
Category: Medium
Scheduled Services: No

Elevation: 1723 ft
TransAlt. 18000 ft.

Airport Communications:
ERIE APP/DEP:126.05
AWOS 3:118.425
BUFFALO RDO:114.7
CTAF/UNICOM:122.7

KJHW Zoom In..

If you have problems with the map follow the link
https://www.worldairports.se/pages/airport.php?
ICAO=KJHW

Runways:

(A) RW 07 length 5299 ft width 100 ft
---- / hdg 69

(B) RW 13 length 4500 ft width 100 ft
---- / hdg 129

(C) RW 25 length 5299 ft width 100 ft
ILS 109.70 / hdg 249

(D) RW 31 length 4500 ft width 100 ft
---- / hdg 309

Location; KJHW
Day. 17 / Time. 02.20 Zulu
* Altimeter: 29.93
* Temperature: 00° c. 32°f.
* Wind from: 260° Speed 07 kn.
Dewpoint: -01° c.
Visibility: 2 Statute Miles.
Clouds: Overcast 200 ft.
Conditions: Mist.

KJHW 170220Z AUTO 26007KT 2SM BR OVC002 00/M01 A2993 RMK AO2 UPE02 P0000 FZRANO


Wind From 260°
Speed 07 kn.

 
 
jpsmedia.com for Web Design worldairports.se 2018   terms of use